createdAt,value
2023-03-28T00:01:13.057Z,102631.22
2023-03-28T00:03:46.154Z,102619.88
2023-03-28T00:06:20.964Z,102629.94
2023-03-28T00:08:58.257Z,102636.44
2023-03-28T00:11:40.062Z,102625.63
2023-03-28T00:14:18.640Z,102623.50
2023-03-28T00:16:52.844Z,102627.41
2023-03-28T00:19:25.724Z,102623.69
2023-03-28T00:21:58.557Z,102625.31
2023-03-28T00:24:31.337Z,102618.81
2023-03-28T00:27:05.797Z,102618.03
2023-03-28T00:29:40.494Z,102623.28
2023-03-28T00:32:14.673Z,102621.34
2023-03-28T00:34:47.452Z,102615.91
2023-03-28T00:37:24.485Z,102614.06
2023-03-28T00:40:10.100Z,102620.00
2023-03-28T00:42:53.173Z,102621.75
2023-03-28T00:45:27.115Z,102614.75
2023-03-28T00:48:06.705Z,102609.38
2023-03-28T00:50:48.641Z,102611.53
2023-03-28T00:53:24.058Z,102619.09
2023-03-28T00:56:03.413Z,102613.81
2023-03-28T00:58:42.439Z,102606.66
2023-03-28T01:01:20.523Z,102604.34
2023-03-28T01:04:02.362Z,102599.81
2023-03-28T01:06:40.680Z,102603.00
2023-03-28T01:09:19.793Z,102596.75
2023-03-28T01:11:59.131Z,102601.38
2023-03-28T01:14:33.294Z,102592.72
2023-03-28T01:17:08.846Z,102593.53
2023-03-28T01:19:58.830Z,102590.00
2023-03-28T01:23:11.141Z,102582.38
2023-03-28T01:26:26.220Z,102590.06
2023-03-28T01:29:42.240Z,102589.03
2023-03-28T01:33:12.616Z,102599.41
2023-03-28T01:36:34.785Z,102594.84
2023-03-28T01:39:18.972Z,102596.75
2023-03-28T01:42:00.324Z,102590.81
2023-03-28T01:44:41.932Z,102586.47
2023-03-28T01:47:20.682Z,102588.91
2023-03-28T01:50:03.383Z,102589.78
2023-03-28T01:52:40.064Z,102586.56
2023-03-28T01:55:21.847Z,102592.59
2023-03-28T01:58:03.917Z,102590.75
2023-03-28T02:00:54.960Z,102587.72
2023-03-28T02:03:33.031Z,102589.38
2023-03-28T02:06:22.883Z,102591.56
2023-03-28T02:08:58.161Z,102575.81
2023-03-28T02:12:17.527Z,102577.81
2023-03-28T02:15:21.726Z,102572.66
2023-03-28T02:18:32.684Z,102566.78
2023-03-28T02:21:30.621Z,102568.41
2023-03-28T02:24:13.679Z,102564.56
2023-03-28T02:26:58.508Z,102563.25
2023-03-28T02:29:44.671Z,102564.63
2023-03-28T02:32:23.817Z,102566.66
2023-03-28T02:34:59.855Z,102572.00
2023-03-28T02:37:43.693Z,102563.63
2023-03-28T02:40:37.946Z,102563.69
2023-03-28T02:43:25.959Z,102559.66
2023-03-28T02:46:13.537Z,102564.28
2023-03-28T02:49:19.306Z,102557.31
2023-03-28T02:52:00.915Z,102560.53
2023-03-28T02:54:44.722Z,102567.59
2023-03-28T02:57:51.010Z,102560.03
2023-03-28T03:00:24.610Z,102558.41
2023-03-28T03:03:01.695Z,102559.06
2023-03-28T03:05:36.094Z,102558.47
2023-03-28T03:08:10.707Z,102559.88
2023-03-28T03:10:43.762Z,102552.22
2023-03-28T03:13:16.727Z,102557.16
2023-03-28T03:15:50.662Z,102548.19
2023-03-28T03:18:33.680Z,102549.66
2023-03-28T03:21:07.049Z,102543.91
2023-03-28T03:23:41.831Z,102547.75
2023-03-28T03:26:14.440Z,102535.75
2023-03-28T03:28:51.442Z,102535.25
2023-03-28T03:31:24.366Z,102535.25
2023-03-28T03:34:33.873Z,102534.44
2023-03-28T03:37:06.962Z,102534.19
2023-03-28T03:39:39.978Z,102530.06
2023-03-28T03:42:12.647Z,102529.34
2023-03-28T03:44:45.705Z,102528.25
2023-03-28T03:47:20.107Z,102530.44
2023-03-28T03:49:57.416Z,102529.34
2023-03-28T03:52:30.137Z,102529.63
2023-03-28T03:55:03.178Z,102525.09
2023-03-28T03:57:40.095Z,102528.91
2023-03-28T04:00:14.822Z,102527.28
2023-03-28T04:02:57.208Z,102521.63
2023-03-28T04:05:33.309Z,102522.44
2023-03-28T04:08:07.937Z,102519.41
2023-03-28T04:10:47.381Z,102526.25
2023-03-28T04:13:20.398Z,102520.34
2023-03-28T04:15:58.910Z,102526.84
2023-03-28T04:18:54.432Z,102528.66
2023-03-28T04:21:32.359Z,102535.06
2023-03-28T04:24:15.657Z,102529.63
2023-03-28T04:26:56.078Z,102529.03
2023-03-28T04:29:31.836Z,102521.97
2023-03-28T04:32:25.456Z,102527.72
2023-03-28T04:35:11.323Z,102523.72
2023-03-28T04:37:47.770Z,102518.16
2023-03-28T04:40:22.484Z,102520.97
2023-03-28T04:43:01.672Z,102514.97
2023-03-28T04:45:40.746Z,102508.44
2023-03-28T04:48:21.219Z,102511.25
2023-03-28T04:50:54.762Z,102513.16
2023-03-28T04:53:28.989Z,102514.16
2023-03-28T04:56:22.258Z,102512.25
2023-03-28T04:58:55.803Z,102512.00
2023-03-28T05:01:33.146Z,102506.31
2023-03-28T05:04:27.940Z,102512.00
2023-03-28T05:07:02.641Z,102506.25
2023-03-28T05:09:37.770Z,102511.69
2023-03-28T05:12:10.977Z,102512.03
2023-03-28T05:15:03.821Z,102528.00
2023-03-28T05:17:37.674Z,102520.16
2023-03-28T05:20:22.478Z,102522.03
2023-03-28T05:22:59.587Z,102522.03
2023-03-28T05:25:34.168Z,102526.97
2023-03-28T05:28:09.660Z,102517.44
2023-03-28T05:30:52.568Z,102519.31
2023-03-28T05:33:25.761Z,102528.81
2023-03-28T05:36:00.400Z,102525.28
2023-03-28T05:38:38.759Z,102529.69
2023-03-28T05:41:22.548Z,102534.31
2023-03-28T05:43:56.360Z,102527.75
2023-03-28T05:46:44.631Z,102525.34
2023-03-28T05:49:20.659Z,102530.78
2023-03-28T05:51:57.486Z,102534.00
2023-03-28T05:54:30.324Z,102526.44
2023-03-28T05:57:05.373Z,102530.78
2023-03-28T05:59:40.778Z,102532.03
2023-03-28T06:02:15.857Z,102527.47
2023-03-28T06:04:49.467Z,102539.69
2023-03-28T06:07:35.113Z,102541.66
2023-03-28T06:10:16.266Z,102546.94
2023-03-28T06:13:01.730Z,102543.22
2023-03-28T06:15:34.525Z,102541.31
2023-03-28T06:18:07.442Z,102542.72
2023-03-28T06:20:45.084Z,102544.06
2023-03-28T06:23:20.729Z,102540.50
2023-03-28T06:25:53.814Z,102534.47
2023-03-28T06:28:29.108Z,102533.19
2023-03-28T06:31:22.060Z,102528.81
2023-03-28T06:33:55.920Z,102529.63
2023-03-28T06:36:29.473Z,102528.72
2023-03-28T06:39:02.595Z,102529.03
2023-03-28T06:41:36.699Z,102531.44
2023-03-28T06:44:11.581Z,102536.53
2023-03-28T06:47:10.285Z,102530.06
2023-03-28T06:49:43.185Z,102532.50
2023-03-28T06:52:33.911Z,102530.22
2023-03-28T06:55:09.703Z,102527.34
2023-03-28T06:57:42.606Z,102529.47
2023-03-28T07:00:27.600Z,102527.28
2023-03-28T07:03:19.230Z,102531.53
2023-03-28T07:05:52.082Z,102524.50
2023-03-28T07:08:26.405Z,102528.31
2023-03-28T07:10:59.330Z,102524.19
2023-03-28T07:13:33.124Z,102537.34
2023-03-28T07:16:15.566Z,102535.00
2023-03-28T07:18:48.784Z,102533.91
2023-03-28T07:21:27.529Z,102534.03
2023-03-28T07:24:03.304Z,102536.19
2023-03-28T07:26:47.910Z,102540.75
2023-03-28T07:29:20.909Z,102532.88
2023-03-28T07:31:56.028Z,102528.84
2023-03-28T07:34:29.160Z,102526.25
2023-03-28T07:37:03.990Z,102526.88
2023-03-28T07:39:56.547Z,102521.56
2023-03-28T08:16:43.291Z,102530.78
2023-03-28T08:19:16.474Z,102531.09
2023-03-28T08:22:17.402Z,102526.50
2023-03-28T08:24:56.890Z,102523.28
2023-03-28T08:27:32.884Z,102524.69
2023-03-28T08:30:13.034Z,102524.09
2023-03-28T08:32:56.472Z,102527.75
2023-03-28T08:35:29.484Z,102524.91
2023-03-28T08:38:08.564Z,102524.91
2023-03-28T08:40:49.434Z,102518.28
2023-03-28T08:43:46.939Z,102522.53
2023-03-28T08:46:27.241Z,102525.34
2023-03-28T08:49:05.774Z,102524.13
2023-03-28T08:51:41.224Z,102517.47
2023-03-28T08:54:19.405Z,102513.97
2023-03-28T08:56:57.040Z,102513.84
2023-03-28T08:59:40.534Z,102519.50
2023-03-28T09:02:16.972Z,102510.94
2023-03-28T09:04:52.887Z,102515.25
2023-03-28T09:07:37.044Z,102503.31
2023-03-28T09:10:18.977Z,102497.06
2023-03-28T09:13:30.038Z,102493.94
2023-03-28T09:16:20.205Z,102482.13
2023-03-28T09:19:21.717Z,102479.41
2023-03-28T09:22:16.765Z,102490.81
2023-03-28T09:25:02.378Z,102486.47
2023-03-28T09:27:49.930Z,102480.69
2023-03-28T09:30:28.200Z,102475.63
2023-03-28T09:33:06.689Z,102483.69
2023-03-28T09:35:40.722Z,102478.66
2023-03-28T09:38:22.675Z,102471.44
2023-03-28T09:41:00.552Z,102476.06
2023-03-28T09:43:49.628Z,102452.69
2023-03-28T09:47:02.581Z,102470.06
2023-03-28T09:49:48.549Z,102468.88
2023-03-28T09:52:25.220Z,102460.19
2023-03-28T09:55:01.378Z,102464.09
2023-03-28T09:58:05.428Z,102456.38
2023-03-28T10:00:49.326Z,102445.13
2023-03-28T10:03:54.164Z,102445.66
2023-03-28T10:06:34.160Z,102445.72
2023-03-28T10:09:26.299Z,102434.91
2023-03-28T10:12:14.249Z,102429.63
2023-03-28T10:14:48.770Z,102424.38
2023-03-28T10:17:42.581Z,102413.91
2023-03-28T10:20:21.230Z,102417.81
2023-03-28T10:22:58.353Z,102407.41
2023-03-28T10:25:39.048Z,102406.25
2023-03-28T10:28:22.247Z,102400.47
2023-03-28T10:30:57.797Z,102400.81
2023-03-28T10:33:35.063Z,102401.00
2023-03-28T10:36:43.656Z,102388.28
2023-03-28T10:39:24.873Z,102397.03
2023-03-28T10:42:25.590Z,102393.28
2023-03-28T10:45:36.238Z,102395.88
2023-03-28T10:48:14.692Z,102388.00
2023-03-28T10:50:50.585Z,102400.25
2023-03-28T10:53:38.101Z,102402.97
2023-03-28T10:56:23.924Z,102386.03
2023-03-28T10:59:14.363Z,102387.63
2023-03-28T11:02:02.942Z,102373.13
2023-03-28T11:04:54.638Z,102376.03
2023-03-28T11:07:37.849Z,102380.84
2023-03-28T11:10:44.272Z,102367.00
2023-03-28T11:13:41.872Z,102365.06
2023-03-28T11:16:23.131Z,102355.06
2023-03-28T11:19:31.829Z,102343.84
2023-03-28T11:22:16.918Z,102334.81
2023-03-28T11:25:06.521Z,102328.53
2023-03-28T11:28:11.951Z,102320.75
2023-03-28T11:30:54.371Z,102309.47
2023-03-28T11:33:50.888Z,102302.25
2023-03-28T11:36:34.158Z,102287.78
2023-03-28T11:39:15.046Z,102286.94
2023-03-28T11:41:49.995Z,102280.94
2023-03-28T11:44:36.326Z,102274.22
2023-03-28T11:47:13.483Z,102282.06
2023-03-28T11:49:53.890Z,102274.19
2023-03-28T11:52:53.473Z,102274.09
2023-03-28T11:55:30.820Z,102267.59
2023-03-28T11:58:12.839Z,102275.47
2023-03-28T12:00:53.088Z,102271.06
2023-03-28T12:03:36.716Z,102268.91
2023-03-28T12:06:17.263Z,102270.16
2023-03-28T12:08:58.202Z,102262.09
2023-03-28T12:11:42.126Z,102261.06
2023-03-28T12:14:30.836Z,102251.22
2023-03-28T12:17:17.957Z,102244.59
2023-03-28T12:19:51.402Z,102244.50
2023-03-28T12:22:26.739Z,102239.28
2023-03-28T12:25:08.342Z,102239.56
2023-03-28T12:27:57.033Z,102231.13
2023-03-28T12:30:40.438Z,102227.25
2023-03-28T12:33:23.049Z,102229.47
2023-03-28T12:36:19.141Z,102226.72
2023-03-28T12:38:58.594Z,102222.22
2023-03-28T12:41:41.018Z,102223.44
2023-03-28T12:44:21.023Z,102223.00
2023-03-28T12:47:00.912Z,102210.31
2023-03-28T12:49:42.675Z,102202.34
2023-03-28T12:52:23.397Z,102197.91
2023-03-28T12:55:01.345Z,102193.22
2023-03-28T12:57:48.430Z,102213.66
2023-03-28T13:00:48.036Z,102197.44
2023-03-28T13:03:53.706Z,102195.16
2023-03-28T13:06:44.774Z,102197.09
2023-03-28T13:09:39.150Z,102193.44
2023-03-28T13:12:29.011Z,102189.31
2023-03-28T13:15:25.362Z,102181.44
2023-03-28T13:18:31.616Z,102185.44
2023-03-28T13:21:07.197Z,102183.81
2023-03-28T13:23:48.980Z,102182.69
2023-03-28T13:26:22.757Z,102183.38
2023-03-28T13:29:02.629Z,102177.44
2023-03-28T13:31:44.735Z,102171.94
2023-03-28T13:34:23.420Z,102166.56
2023-03-28T13:36:56.732Z,102167.38
2023-03-28T13:39:29.967Z,102166.22
2023-03-28T13:42:04.638Z,102157.31
2023-03-28T13:44:42.970Z,102156.63
2023-03-28T13:47:26.766Z,102157.06
2023-03-28T13:50:03.668Z,102157.56
2023-03-28T13:52:36.807Z,102151.94
2023-03-28T13:55:20.627Z,102146.56
2023-03-28T13:57:54.236Z,102148.72
2023-03-28T14:00:28.816Z,102146.44
2023-03-28T14:03:04.929Z,102134.66
2023-03-28T14:05:44.596Z,102128.38
2023-03-28T14:08:22.794Z,102125.28
2023-03-28T14:10:57.044Z,102120.03
2023-03-28T14:13:31.405Z,102119.22
2023-03-28T14:16:07.663Z,102119.56
2023-03-28T14:18:44.653Z,102110.63
2023-03-28T14:21:17.588Z,102103.78
2023-03-28T14:23:57.124Z,102098.53
2023-03-28T14:26:35.207Z,102092.13
2023-03-28T14:29:13.369Z,102088.44
2023-03-28T14:31:48.676Z,102081.59
2023-03-28T14:34:28.694Z,102077.94
2023-03-28T14:37:03.787Z,102075.88
2023-03-28T14:39:39.911Z,102068.47
2023-03-28T14:42:16.416Z,102061.94
2023-03-28T14:44:53.546Z,102064.44
2023-03-28T14:47:29.099Z,102049.13
2023-03-28T14:50:05.369Z,102048.22
2023-03-28T14:52:41.033Z,102046.38
2023-03-28T14:55:18.265Z,102037.47
2023-03-28T14:57:53.648Z,102035.88
2023-03-28T15:00:36.052Z,102028.09
2023-03-28T15:03:13.538Z,102024.09
2023-03-28T15:05:51.902Z,102021.69
2023-03-28T15:08:31.006Z,102026.03
2023-03-28T15:11:07.530Z,102014.25
2023-03-28T15:13:42.474Z,102003.28
2023-03-28T15:16:20.548Z,102002.00
2023-03-28T15:18:58.194Z,101992.19
2023-03-28T15:21:34.514Z,101994.13
2023-03-28T15:24:12.617Z,101995.06
2023-03-28T15:26:50.533Z,101986.81
2023-03-28T15:29:25.264Z,101986.25
2023-03-28T15:32:03.720Z,101979.16
2023-03-28T15:34:46.008Z,101979.38
2023-03-28T15:37:23.316Z,101977.09
2023-03-28T15:40:12.962Z,101973.56
2023-03-28T15:42:50.156Z,101972.50
2023-03-28T15:45:40.812Z,101956.53
2023-03-28T15:48:17.766Z,101960.97
2023-03-28T15:50:52.793Z,101954.88
2023-03-28T15:53:30.047Z,101952.03
2023-03-28T15:56:09.870Z,101946.88
2023-03-28T15:58:45.232Z,101943.78
2023-03-28T16:01:22.298Z,101939.34
2023-03-28T16:04:20.987Z,101937.63
2023-03-28T16:06:56.976Z,101943.25
2023-03-28T16:09:31.483Z,101935.94
2023-03-28T16:12:05.407Z,101933.50
2023-03-28T16:14:48.833Z,101935.94
2023-03-28T16:17:50.880Z,101932.84
2023-03-28T16:20:35.101Z,101931.09
2023-03-28T16:23:11.063Z,101932.84
2023-03-28T16:25:45.379Z,101929.38
2023-03-28T16:28:19.192Z,101925.59
2023-03-28T16:30:52.975Z,101921.59
2023-03-28T16:33:25.840Z,101912.34
2023-03-28T16:35:58.752Z,101912.81
2023-03-28T16:38:31.696Z,101911.09
2023-03-28T16:41:11.714Z,101908.72
2023-03-28T16:43:44.419Z,101895.91
2023-03-28T16:46:17.517Z,101895.00
2023-03-28T16:48:50.276Z,101892.47
2023-03-28T16:51:23.172Z,101887.25
2023-03-28T16:53:55.919Z,101884.72
2023-03-28T16:56:30.545Z,101886.16
2023-03-28T16:59:04.452Z,101871.00
2023-03-28T17:01:38.749Z,101866.75
2023-03-28T17:04:11.712Z,101864.03
2023-03-28T17:06:45.839Z,101853.66
2023-03-28T17:09:18.934Z,101863.91
2023-03-28T17:11:53.049Z,101859.13
2023-03-28T17:14:25.930Z,101861.41
2023-03-28T17:16:58.717Z,101860.81
2023-03-28T17:19:34.658Z,101860.22
2023-03-28T17:22:07.739Z,101859.56
2023-03-28T17:24:41.319Z,101853.75
2023-03-28T17:27:18.834Z,101855.25
2023-03-28T17:29:53.141Z,101853.41
2023-03-28T17:32:29.409Z,101856.00
2023-03-28T17:35:05.510Z,101855.66
2023-03-28T17:37:38.661Z,101854.66
2023-03-28T17:40:12.234Z,101857.03
2023-03-28T17:42:47.289Z,101858.38
2023-03-28T17:45:21.428Z,101858.38
2023-03-28T17:47:59.351Z,101859.38
2023-03-28T17:50:33.538Z,101864.56
2023-03-28T17:53:07.886Z,101860.44
2023-03-28T17:55:41.114Z,101865.78
2023-03-28T17:58:16.010Z,101869.91
2023-03-28T18:00:48.854Z,101860.72
2023-03-28T18:03:25.146Z,101861.25
2023-03-28T18:06:13.128Z,101861.25
2023-03-28T18:08:46.814Z,101857.91
2023-03-28T18:11:20.127Z,101852.25
2023-03-28T18:13:58.877Z,101850.47
2023-03-28T18:16:32.027Z,101843.25
2023-03-28T18:19:06.761Z,101835.84
2023-03-28T18:21:39.520Z,101835.91
2023-03-28T18:24:12.305Z,101845.53
2023-03-28T18:26:45.057Z,101827.84
2023-03-28T18:29:19.461Z,101831.41
2023-03-28T18:31:52.182Z,101821.75
2023-03-28T18:34:25.174Z,101814.38
2023-03-28T18:37:00.117Z,101820.03
2023-03-28T18:39:33.030Z,101810.03
2023-03-28T18:42:07.477Z,101800.97
2023-03-28T18:44:41.883Z,101802.66
2023-03-28T18:47:14.605Z,101799.00
2023-03-28T18:49:47.553Z,101798.47
2023-03-28T18:52:20.316Z,101789.00
2023-03-28T18:54:53.121Z,101776.88
2023-03-28T18:57:26.735Z,101773.72
2023-03-28T19:00:03.446Z,101774.59
2023-03-28T19:02:36.869Z,101757.59
2023-03-28T19:05:11.112Z,101740.78
2023-03-28T19:07:44.143Z,101746.59
2023-03-28T19:10:17.120Z,101745.91
2023-03-28T19:12:50.248Z,101755.94
2023-03-28T19:15:26.395Z,101757.25
2023-03-28T19:18:02.282Z,101748.41
2023-03-28T19:20:36.379Z,101756.50
2023-03-28T19:23:09.506Z,101751.59
2023-03-28T19:25:49.132Z,101756.16
2023-03-28T19:28:22.787Z,101755.47
2023-03-28T19:31:07.320Z,101752.94
2023-03-28T19:33:41.657Z,101749.88
2023-03-28T19:36:23.927Z,101757.19
2023-03-28T19:38:57.142Z,101752.72
2023-03-28T19:41:29.893Z,101752.47
2023-03-28T19:44:02.620Z,101749.72
2023-03-28T19:46:40.627Z,101757.22
2023-03-28T19:49:15.993Z,101752.69
2023-03-28T19:51:53.727Z,101753.16
2023-03-28T19:54:26.686Z,101758.16
2023-03-28T19:57:00.171Z,101747.06
2023-03-28T19:59:33.603Z,101742.00
2023-03-28T20:02:10.792Z,101740.47
2023-03-28T20:04:43.550Z,101726.94
2023-03-28T20:07:21.933Z,101730.56
2023-03-28T20:09:57.359Z,101713.22
2023-03-28T20:12:30.788Z,101705.34
2023-03-28T20:15:06.735Z,101696.13
2023-03-28T20:17:41.650Z,101700.53
2023-03-28T20:20:15.487Z,101698.31
2023-03-28T20:22:48.230Z,101693.53
2023-03-28T20:25:21.437Z,101694.75
2023-03-28T20:27:54.965Z,101696.13
2023-03-28T20:30:28.012Z,101689.88
2023-03-28T20:33:02.892Z,101687.47
2023-03-28T20:35:35.946Z,101689.94
2023-03-28T20:38:09.657Z,101684.63
2023-03-28T20:40:42.272Z,101680.03
2023-03-28T20:43:19.830Z,101683.22
2023-03-28T20:45:54.395Z,101681.47
2023-03-28T20:48:36.430Z,101679.25
2023-03-28T20:51:14.128Z,101683.31
2023-03-28T20:53:49.670Z,101677.56
2023-03-28T20:56:23.430Z,101682.81
2023-03-28T20:58:58.263Z,101668.16
2023-03-28T21:01:32.960Z,101672.69
2023-03-28T21:04:07.317Z,101681.91
2023-03-28T21:06:40.165Z,101685.53
2023-03-28T21:09:16.096Z,101685.63
2023-03-28T21:11:49.597Z,101678.97
2023-03-28T21:14:22.506Z,101677.56
2023-03-28T21:16:57.811Z,101672.31
2023-03-28T21:19:31.937Z,101671.09
2023-03-28T21:22:04.587Z,101669.22
2023-03-28T21:24:37.369Z,101659.25
2023-03-28T21:27:10.068Z,101648.44
2023-03-28T21:29:43.034Z,101638.63
2023-03-28T21:32:16.392Z,101638.38
2023-03-28T21:34:51.561Z,101637.38
2023-03-28T21:37:24.492Z,101634.84
2023-03-28T21:39:57.738Z,101644.66
2023-03-28T21:42:30.772Z,101633.25
2023-03-28T21:45:03.610Z,101626.31
2023-03-28T21:47:38.092Z,101638.03
2023-03-28T21:50:15.182Z,101635.00
2023-03-28T21:52:48.001Z,101636.34
2023-03-28T21:55:20.845Z,101630.19
2023-03-28T21:57:53.668Z,101627.38
2023-03-28T22:00:26.341Z,101626.84
2023-03-28T22:02:59.695Z,101614.66
2023-03-28T22:05:33.834Z,101612.28
2023-03-28T22:08:07.007Z,101614.66
2023-03-28T22:10:45.781Z,101614.25
2023-03-28T22:13:18.982Z,101608.22
2023-03-28T22:15:53.174Z,101608.53
2023-03-28T22:18:27.052Z,101604.44
2023-03-28T22:21:02.780Z,101595.81
2023-03-28T22:23:36.321Z,101588.75
2023-03-28T22:26:10.261Z,101583.81
2023-03-28T22:28:42.913Z,101582.03
2023-03-28T22:31:17.090Z,101577.94
2023-03-28T22:33:49.836Z,101573.00
2023-03-28T22:36:24.410Z,101577.03
2023-03-28T22:38:57.350Z,101574.84
2023-03-28T22:41:32.110Z,101578.63
2023-03-28T22:44:04.920Z,101576.22
2023-03-28T22:46:41.044Z,101576.16
2023-03-28T22:49:21.927Z,101573.44
2023-03-28T22:52:01.754Z,101565.38
2023-03-28T22:54:36.983Z,101568.91
2023-03-28T22:57:10.237Z,101560.72
2023-03-28T22:59:42.917Z,101565.06
2023-03-28T23:02:15.588Z,101562.31
2023-03-28T23:04:48.294Z,101563.66
2023-03-28T23:07:22.433Z,101554.13
2023-03-28T23:09:55.047Z,101542.97
2023-03-28T23:12:27.833Z,101549.56
2023-03-28T23:15:00.468Z,101541.59
2023-03-28T23:17:33.264Z,101546.94
2023-03-28T23:20:12.727Z,101547.31
2023-03-28T23:22:49.160Z,101533.34
2023-03-28T23:25:22.287Z,101530.94
2023-03-28T23:27:55.135Z,101526.25
2023-03-28T23:30:28.135Z,101525.06
2023-03-28T23:33:01.875Z,101524.28
2023-03-28T23:35:35.059Z,101513.59
2023-03-28T23:38:09.209Z,101510.50
2023-03-28T23:40:41.944Z,101507.44
2023-03-28T23:43:14.833Z,101504.44
2023-03-28T23:45:47.520Z,101507.88
2023-03-28T23:48:20.547Z,101507.00
2023-03-28T23:50:53.063Z,101495.63
2023-03-28T23:53:27.959Z,101499.91
2023-03-28T23:56:00.606Z,101500.59
2023-03-28T23:58:33.420Z,101503.91
